Terminal Aerodrome Forecast
Issued by NWS Wilmington, OH

Current Version | Previous Version | Graphics & Text | Print | Product List | Glossary On
Versions: 1 2 3 4 5 6 7 8 9 10 11 12 13 14 15 16 17 18 19 20 21 22 23 24 25 26 27 28 29 30 31 32 33 34 35
000
FTUS41 KILN 280549
TAFCVG
TAF
KCVG 280549Z 2806/2912 VRB03KT P6SM BKN080
     FM280700 00000KT P6SM VCTS SCT040CB BKN150
     FM280900 VRB03KT 5SM -SHRA BR VCTS BKN035CB BKN150
      TEMPO 2810/2814 4SM -TSRA BR OVC025CB
     FM281600 22004KT P6SM VCTS BKN040CB BKN150
     FM290100 00000KT P6SM BKN040 BKN150
     FM290800 22004KT 5SM BR BKN060=

USA.gov is the U.S. government's official web portal to all federal, state and local government web resources and services.